createdAt,value
2018-10-19T00:00:47.495Z,34.27
2018-10-19T00:03:16.143Z,34.80
2018-10-19T00:05:44.614Z,32.50
2018-10-19T00:08:13.176Z,33.83
2018-10-19T00:10:41.965Z,34.13
2018-10-19T00:13:10.691Z,34.90
2018-10-19T00:15:39.320Z,37.33
2018-10-19T00:18:08.053Z,33.27
2018-10-19T00:20:36.535Z,34.20
2018-10-19T00:23:05.270Z,34.67
2018-10-19T00:25:33.796Z,32.93
2018-10-19T00:28:02.388Z,35.67
2018-10-19T00:30:31.077Z,32.70
2018-10-19T00:32:59.608Z,35.50
2018-10-19T00:35:28.129Z,34.83
2018-10-19T00:37:56.631Z,34.50
2018-10-19T00:40:25.167Z,35.50
2018-10-19T00:42:53.646Z,41.17
2018-10-19T00:45:27.616Z,34.57
2018-10-19T00:47:56.884Z,36.50
2018-10-19T00:50:25.390Z,36.50
2018-10-19T00:52:53.903Z,35.10
2018-10-19T00:55:22.382Z,33.70
2018-10-19T00:57:50.900Z,34.83
2018-10-19T01:00:19.487Z,37.70
2018-10-19T01:02:47.966Z,37.47
2018-10-19T01:05:16.721Z,37.33
2018-10-19T01:07:45.208Z,39.53
2018-10-19T01:10:17.933Z,39.27
2018-10-19T01:12:46.449Z,41.00
2018-10-19T01:15:15.038Z,39.73
2018-10-19T01:17:43.526Z,36.77
2018-10-19T01:20:12.112Z,37.37
2018-10-19T01:22:40.667Z,40.97
2018-10-19T01:25:09.268Z,36.23
2018-10-19T01:27:37.801Z,37.67
2018-10-19T01:30:07.083Z,36.83
2018-10-19T01:32:36.033Z,35.40
2018-10-19T01:35:05.044Z,36.97
2018-10-19T01:37:33.593Z,37.83
2018-10-19T01:40:02.063Z,37.67
2018-10-19T01:42:30.563Z,36.13
2018-10-19T01:44:59.160Z,37.40
2018-10-19T01:47:27.665Z,37.07
2018-10-19T01:49:56.117Z,36.23
2018-10-19T01:52:24.692Z,39.67
2018-10-19T01:54:53.253Z,37.63
2018-10-19T01:57:22.620Z,36.40
2018-10-19T01:59:51.558Z,39.00
2018-10-19T02:02:20.235Z,38.53
2018-10-19T02:04:48.951Z,36.93
2018-10-19T02:07:17.585Z,39.70
2018-10-19T02:09:46.099Z,36.27
2018-10-19T02:12:14.706Z,36.17
2018-10-19T02:14:43.244Z,38.63
2018-10-19T02:17:11.942Z,35.30
2018-10-19T02:19:40.436Z,34.97
2018-10-19T02:22:09.333Z,36.27
2018-10-19T02:24:37.845Z,38.33
2018-10-19T02:27:06.811Z,39.33
2018-10-19T02:29:35.284Z,38.03
2018-10-19T02:32:03.744Z,37.47
2018-10-19T02:34:32.240Z,36.13
2018-10-19T02:37:00.758Z,36.53
2018-10-19T02:39:29.284Z,39.63
2018-10-19T02:41:57.744Z,39.47
2018-10-19T02:44:26.578Z,37.30
2018-10-19T02:46:55.099Z,37.93
2018-10-19T02:49:23.575Z,37.83
2018-10-19T02:51:52.056Z,38.23
2018-10-19T02:54:20.637Z,39.73
2018-10-19T02:56:49.118Z,40.90
2018-10-19T02:59:17.688Z,41.20
2018-10-19T03:01:46.089Z,37.37
2018-10-19T03:04:14.607Z,32.17
2018-10-19T03:06:43.112Z,32.00
2018-10-19T03:09:11.910Z,36.40
2018-10-19T03:11:40.673Z,35.90
2018-10-19T03:14:09.192Z,37.57
2018-10-19T03:16:37.719Z,39.63
2018-10-19T03:19:06.308Z,42.37
2018-10-19T03:21:34.784Z,40.33
2018-10-19T03:24:03.264Z,37.20
2018-10-19T03:26:31.885Z,41.03
2018-10-19T03:29:00.437Z,38.70
2018-10-19T03:31:28.986Z,39.33
2018-10-19T03:33:57.480Z,38.77
2018-10-19T03:36:26.039Z,40.00
2018-10-19T03:38:54.785Z,44.13
2018-10-19T03:41:23.326Z,44.80
2018-10-19T03:43:51.813Z,40.03
2018-10-19T03:46:20.358Z,40.53
2018-10-19T03:48:48.823Z,46.53
2018-10-19T03:51:17.428Z,42.30
2018-10-19T03:53:45.852Z,40.13
2018-10-19T03:56:14.420Z,45.00
2018-10-19T03:58:42.966Z,46.67
2018-10-19T04:01:11.557Z,48.50
2018-10-19T04:03:40.104Z,44.67
2018-10-19T04:06:08.533Z,41.50
2018-10-19T04:08:36.998Z,45.07
2018-10-19T04:11:05.642Z,46.43
2018-10-19T04:13:34.124Z,46.70
2018-10-19T04:16:02.608Z,51.37
2018-10-19T04:18:31.098Z,48.60
2018-10-19T04:20:59.821Z,44.37
2018-10-19T04:23:28.299Z,41.57
2018-10-19T04:25:56.850Z,44.13
2018-10-19T04:28:25.412Z,42.70
2018-10-19T04:30:53.895Z,40.73
2018-10-19T04:33:22.460Z,43.20
2018-10-19T04:35:50.957Z,40.83
2018-10-19T04:38:19.472Z,46.10
2018-10-19T04:40:47.948Z,46.77
2018-10-19T04:43:16.545Z,47.17
2018-10-19T04:45:45.173Z,41.60
2018-10-19T04:48:13.778Z,41.27
2018-10-19T04:50:42.315Z,40.23
2018-10-19T04:53:11.637Z,42.43
2018-10-19T04:55:40.073Z,44.10
2018-10-19T04:58:08.580Z,42.07
2018-10-19T05:00:37.101Z,42.23
2018-10-19T05:03:06.043Z,38.77
2018-10-19T05:05:34.550Z,41.67
2018-10-19T05:08:03.063Z,43.37
2018-10-19T05:10:31.562Z,39.30
2018-10-19T05:13:00.162Z,43.20
2018-10-19T05:15:28.622Z,48.50
2018-10-19T05:17:57.140Z,47.10
2018-10-19T05:20:25.729Z,47.87
2018-10-19T05:22:54.305Z,48.07
2018-10-19T05:25:22.829Z,48.30
2018-10-19T05:27:51.326Z,52.83
2018-10-19T05:30:19.804Z,52.43
2018-10-19T05:32:48.344Z,49.87
2018-10-19T05:35:16.957Z,52.77
2018-10-19T05:37:45.395Z,55.97
2018-10-19T05:40:13.915Z,63.77
2018-10-19T05:42:42.503Z,56.67
2018-10-19T05:45:12.367Z,56.03
2018-10-19T05:47:40.993Z,55.53
2018-10-19T05:50:10.847Z,51.43
2018-10-19T05:52:39.475Z,52.60
2018-10-19T05:55:08.681Z,54.63
2018-10-19T05:57:37.359Z,58.10
2018-10-19T06:00:07.580Z,55.70
2018-10-19T06:02:36.217Z,52.33
2018-10-19T06:05:05.224Z,47.20
2018-10-19T06:07:33.733Z,43.90
2018-10-19T06:10:02.244Z,46.67
2018-10-19T06:12:30.849Z,47.30
2018-10-19T06:14:59.409Z,51.13
2018-10-19T06:17:27.934Z,42.20
2018-10-19T06:19:56.475Z,42.10
2018-10-19T06:22:25.021Z,43.70
2018-10-19T06:24:53.575Z,40.40
2018-10-19T06:27:22.105Z,41.03
2018-10-19T06:29:50.626Z,43.27
2018-10-19T06:32:19.114Z,46.77
2018-10-19T06:34:47.617Z,41.23
2018-10-19T06:37:16.090Z,45.50
2018-10-19T06:39:44.662Z,42.93
2018-10-19T06:42:13.194Z,46.40
2018-10-19T06:44:41.704Z,45.10
2018-10-19T06:47:10.399Z,46.10
2018-10-19T06:49:38.809Z,43.30
2018-10-19T06:52:07.312Z,43.30
2018-10-19T06:54:35.773Z,48.63
2018-10-19T06:57:04.293Z,41.27
2018-10-19T06:59:32.800Z,43.20
2018-10-19T07:02:01.395Z,43.53
2018-10-19T07:04:29.851Z,39.60
2018-10-19T07:06:58.398Z,44.70
2018-10-19T07:09:27.486Z,41.90
2018-10-19T07:11:56.005Z,41.30
2018-10-19T07:14:24.508Z,44.43
2018-10-19T07:16:53.020Z,44.10
2018-10-19T07:19:21.537Z,43.33
2018-10-19T07:21:51.246Z,43.20
2018-10-19T07:24:19.728Z,44.87
2018-10-19T07:26:48.890Z,44.50
2018-10-19T07:29:17.445Z,43.70
2018-10-19T07:31:45.914Z,45.80
2018-10-19T07:34:14.427Z,46.13
2018-10-19T07:36:42.933Z,50.97
2018-10-19T07:39:11.502Z,53.03
2018-10-19T07:41:40.050Z,47.47
2018-10-19T07:44:08.561Z,50.63
2018-10-19T07:46:37.058Z,47.47
2018-10-19T07:49:05.572Z,47.90
2018-10-19T07:51:34.085Z,57.20
2018-10-19T07:54:02.615Z,50.13
2018-10-19T07:56:31.067Z,46.50
2018-10-19T07:58:59.524Z,46.27
2018-10-19T08:01:28.125Z,49.20
2018-10-19T08:03:56.646Z,48.37
2018-10-19T08:06:25.131Z,50.60
2018-10-19T08:08:53.610Z,53.13
2018-10-19T08:11:22.172Z,53.30
2018-10-19T08:13:50.669Z,49.23
2018-10-19T08:16:19.165Z,49.03
2018-10-19T08:18:47.671Z,44.30
2018-10-19T08:21:16.204Z,50.20
2018-10-19T08:23:44.732Z,51.77
2018-10-19T08:26:13.276Z,47.10
2018-10-19T08:28:41.873Z,49.63
2018-10-19T08:31:10.405Z,53.33
2018-10-19T08:33:39.319Z,51.73
2018-10-19T08:36:07.876Z,56.90
2018-10-19T08:38:36.374Z,51.50
2018-10-19T08:41:05.192Z,55.70
2018-10-19T08:43:33.639Z,55.90
2018-10-19T08:46:07.502Z,51.20
2018-10-19T08:48:36.088Z,56.97
2018-10-19T08:51:04.775Z,53.97
2018-10-19T08:53:33.438Z,51.73
2018-10-19T08:56:02.062Z,51.97
2018-10-19T08:58:30.591Z,55.93
2018-10-19T09:00:59.201Z,53.17
2018-10-19T09:03:27.811Z,52.67
2018-10-19T09:05:56.355Z,53.73
2018-10-19T09:08:24.934Z,52.30
2018-10-19T09:10:53.498Z,54.97
2018-10-19T09:13:21.944Z,53.83
2018-10-19T09:15:50.538Z,59.50
2018-10-19T09:18:19.216Z,59.60
2018-10-19T09:20:47.861Z,58.90
2018-10-19T09:23:16.421Z,60.17
2018-10-19T09:25:44.869Z,50.43
2018-10-19T09:28:13.487Z,58.00
2018-10-19T09:30:42.124Z,58.80
2018-10-19T09:33:11.097Z,57.03
2018-10-19T09:35:39.751Z,58.67
2018-10-19T09:38:08.172Z,59.57
2018-10-19T09:40:36.636Z,59.00
2018-10-19T09:43:05.236Z,62.10
2018-10-19T09:45:33.749Z,57.10
2018-10-19T09:48:02.276Z,53.00
2018-10-19T09:50:30.797Z,55.60
2018-10-19T09:52:59.382Z,53.80
2018-10-19T09:55:27.828Z,54.00
2018-10-19T09:57:57.078Z,51.87
2018-10-19T10:00:30.826Z,53.83
2018-10-19T10:02:59.404Z,54.60
2018-10-19T10:05:27.964Z,49.20
2018-10-19T10:07:56.531Z,55.20
2018-10-19T10:10:24.983Z,54.63
2018-10-19T10:12:53.764Z,53.33
2018-10-19T10:15:22.396Z,52.00
2018-10-19T10:17:50.867Z,60.47
2018-10-19T10:20:19.417Z,54.00
2018-10-19T10:22:47.942Z,53.17
2018-10-19T10:25:16.510Z,56.73
2018-10-19T10:27:45.044Z,54.30
2018-10-19T10:30:13.957Z,53.10
2018-10-19T10:32:42.473Z,59.10
2018-10-19T10:35:11.016Z,51.63
2018-10-19T10:37:39.598Z,52.97
2018-10-19T10:40:08.542Z,47.33
2018-10-19T10:42:37.693Z,49.97
2018-10-19T10:45:06.714Z,50.80
2018-10-19T10:47:35.392Z,51.40
2018-10-19T10:50:04.030Z,51.20
2018-10-19T10:52:32.611Z,48.23
2018-10-19T10:55:01.184Z,48.60
2018-10-19T10:57:29.687Z,50.57
2018-10-19T10:59:58.160Z,51.33
2018-10-19T11:02:26.636Z,47.83
2018-10-19T11:04:55.154Z,49.70
2018-10-19T11:07:23.802Z,47.43
2018-10-19T11:09:52.361Z,52.13
2018-10-19T11:12:20.824Z,48.50
2018-10-19T11:14:49.327Z,49.80
2018-10-19T11:17:18.159Z,50.40
2018-10-19T11:19:46.676Z,50.80
2018-10-19T11:22:15.230Z,48.30
2018-10-19T11:24:43.748Z,49.40
2018-10-19T11:27:12.401Z,49.40
2018-10-19T11:29:41.139Z,51.80
2018-10-19T11:32:09.605Z,46.87
2018-10-19T11:34:38.185Z,49.93
2018-10-19T11:37:06.817Z,49.47
2018-10-19T11:39:37.945Z,47.90
2018-10-19T11:42:06.481Z,47.17
2018-10-19T11:44:34.961Z,49.27
2018-10-19T11:47:03.470Z,51.53
2018-10-19T11:49:31.988Z,50.40
2018-10-19T11:52:00.617Z,50.00
2018-10-19T11:54:29.200Z,48.70
2018-10-19T11:56:57.734Z,53.23
2018-10-19T11:59:26.445Z,47.47
2018-10-19T12:01:54.943Z,50.00
2018-10-19T12:04:23.501Z,48.10
2018-10-19T12:06:52.018Z,51.67
2018-10-19T12:09:20.550Z,51.93
2018-10-19T12:11:49.152Z,52.23
2018-10-19T12:14:17.673Z,48.13
2018-10-19T12:16:46.341Z,45.00
2018-10-19T12:19:14.969Z,47.97
2018-10-19T12:21:43.571Z,48.03
2018-10-19T12:24:12.188Z,45.33
2018-10-19T12:26:40.906Z,51.10
2018-10-19T12:29:09.481Z,48.50
2018-10-19T12:31:38.041Z,45.27
2018-10-19T12:34:06.533Z,47.17
2018-10-19T12:36:35.073Z,46.43
2018-10-19T12:39:04.142Z,43.97
2018-10-19T12:41:32.602Z,47.33
2018-10-19T12:44:01.131Z,46.70
2018-10-19T12:46:41.954Z,46.50
2018-10-19T12:49:11.532Z,46.27
2018-10-19T12:51:40.362Z,46.07
2018-10-19T12:54:09.274Z,44.40
2018-10-19T12:56:37.720Z,44.40
2018-10-19T12:59:06.373Z,44.63
2018-10-19T13:01:35.102Z,43.70
2018-10-19T13:04:04.025Z,44.27
2018-10-19T13:06:32.570Z,44.67
2018-10-19T13:09:01.166Z,42.20
2018-10-19T13:11:29.723Z,44.40
2018-10-19T13:13:58.274Z,47.90
2018-10-19T13:16:26.813Z,49.37
2018-10-19T13:18:55.511Z,44.63
2018-10-19T13:21:23.991Z,43.80
2018-10-19T13:23:52.543Z,45.87
2018-10-19T13:26:21.111Z,46.23
2018-10-19T13:28:49.744Z,47.07
2018-10-19T13:31:18.354Z,42.10
2018-10-19T13:33:47.166Z,44.17
2018-10-19T13:36:15.812Z,43.77
2018-10-19T13:38:44.289Z,46.63
2018-10-19T13:41:13.162Z,45.27
2018-10-19T13:43:42.491Z,45.63
2018-10-19T13:46:10.989Z,43.67
2018-10-19T13:48:39.492Z,46.50
2018-10-19T13:51:08.115Z,45.93
2018-10-19T13:53:36.546Z,42.17
2018-10-19T13:56:05.126Z,42.03
2018-10-19T13:58:33.635Z,43.00
2018-10-19T14:01:02.281Z,46.83
2018-10-19T14:03:30.751Z,43.83
2018-10-19T14:06:00.282Z,41.07
2018-10-19T14:08:28.768Z,41.63
2018-10-19T14:10:57.301Z,41.70
2018-10-19T14:13:26.363Z,42.20
2018-10-19T14:15:54.975Z,43.93
2018-10-19T14:18:23.500Z,40.10
2018-10-19T14:20:52.199Z,44.83
2018-10-19T14:23:20.776Z,41.63
2018-10-19T14:25:49.461Z,43.63
2018-10-19T14:28:18.742Z,44.67
2018-10-19T14:30:47.347Z,42.53
2018-10-19T14:33:16.119Z,41.40
2018-10-19T14:35:44.649Z,41.70
2018-10-19T14:38:13.200Z,40.07
2018-10-19T14:40:41.913Z,43.10
2018-10-19T14:43:10.421Z,42.60
2018-10-19T14:45:38.929Z,43.60
2018-10-19T14:48:07.486Z,43.53
2018-10-19T14:50:36.097Z,41.70
2018-10-19T14:53:05.086Z,43.10
2018-10-19T14:55:33.620Z,43.10
2018-10-19T14:58:02.207Z,40.67
2018-10-19T15:00:30.958Z,41.27
2018-10-19T15:02:59.482Z,43.93
2018-10-19T15:05:28.406Z,42.93
2018-10-19T15:07:57.638Z,42.50
2018-10-19T15:10:26.418Z,42.07
2018-10-19T15:12:55.051Z,39.80
2018-10-19T15:15:24.148Z,40.50
2018-10-19T15:17:52.659Z,38.40
2018-10-19T15:20:21.366Z,40.90
2018-10-19T15:22:50.019Z,42.50
2018-10-19T15:25:18.609Z,41.67
2018-10-19T15:27:48.108Z,41.63
2018-10-19T15:30:18.413Z,40.63
2018-10-19T15:32:47.009Z,38.60
2018-10-19T15:35:15.603Z,39.83
2018-10-19T15:37:44.204Z,39.50
2018-10-19T15:40:13.168Z,41.30
2018-10-19T15:42:41.671Z,37.37
2018-10-19T15:45:12.025Z,40.03
2018-10-19T15:47:40.510Z,38.63
2018-10-19T15:50:09.292Z,40.17
2018-10-19T15:52:37.844Z,37.83
2018-10-19T15:55:06.725Z,38.63
2018-10-19T15:57:35.299Z,35.10
2018-10-19T16:00:04.093Z,35.37
2018-10-19T16:02:32.682Z,37.47
2018-10-19T16:05:01.255Z,41.47
2018-10-19T16:07:29.786Z,39.37
2018-10-19T16:09:58.346Z,39.80
2018-10-19T16:12:26.870Z,40.40
2018-10-19T16:14:55.417Z,36.80
2018-10-19T16:17:24.196Z,38.40
2018-10-19T16:19:52.717Z,38.53
2018-10-19T16:22:21.283Z,40.43
2018-10-19T16:24:50.204Z,38.30
2018-10-19T16:27:18.874Z,39.70
2018-10-19T16:29:47.934Z,43.37
2018-10-19T16:32:16.585Z,40.77
2018-10-19T16:34:45.345Z,44.23
2018-10-19T16:37:13.883Z,41.20
2018-10-19T16:39:42.424Z,43.73
2018-10-19T16:42:11.157Z,40.80
2018-10-19T16:44:39.717Z,41.00
2018-10-19T16:47:08.642Z,40.37
2018-10-19T16:49:37.130Z,40.40
2018-10-19T16:52:06.036Z,45.50
2018-10-19T16:54:34.539Z,41.63
2018-10-19T16:57:03.771Z,48.07
2018-10-19T16:59:32.376Z,48.10
2018-10-19T17:02:01.389Z,47.70
2018-10-19T17:04:30.044Z,47.60
2018-10-19T17:06:58.670Z,49.30
2018-10-19T17:09:27.178Z,49.50
2018-10-19T17:11:55.737Z,49.30
2018-10-19T17:14:24.411Z,49.60
2018-10-19T17:16:53.102Z,48.73
2018-10-19T17:19:21.739Z,47.67
2018-10-19T17:21:50.131Z,50.60
2018-10-19T17:24:18.775Z,48.80
2018-10-19T17:26:47.579Z,48.93
2018-10-19T17:29:16.249Z,48.47
2018-10-19T17:31:44.756Z,49.03
2018-10-19T17:34:13.471Z,51.40
2018-10-19T17:36:42.769Z,50.90
2018-10-19T17:39:11.952Z,50.80
2018-10-19T17:41:40.581Z,50.47
2018-10-19T17:44:09.443Z,44.70
2018-10-19T17:46:38.882Z,49.80
2018-10-19T17:49:07.853Z,46.83
2018-10-19T17:51:37.003Z,47.90
2018-10-19T17:54:07.937Z,48.87
2018-10-19T17:56:37.916Z,52.10
2018-10-19T17:59:07.416Z,50.20
2018-10-19T18:01:36.313Z,52.13
2018-10-19T18:04:05.183Z,45.47
2018-10-19T18:06:33.956Z,42.87
2018-10-19T18:09:02.744Z,48.07
2018-10-19T18:11:32.125Z,43.30
2018-10-19T18:14:01.332Z,44.87
2018-10-19T18:16:30.339Z,44.17
2018-10-19T18:18:59.287Z,46.47
2018-10-19T18:21:28.529Z,48.03
2018-10-19T18:23:57.392Z,51.37
2018-10-19T18:26:26.307Z,46.97
2018-10-19T18:28:55.161Z,53.43
2018-10-19T18:31:23.946Z,53.40
2018-10-19T18:33:52.645Z,49.50
2018-10-19T18:36:21.262Z,57.23
2018-10-19T18:38:50.065Z,54.13
2018-10-19T18:41:19.255Z,53.50
2018-10-19T18:43:47.831Z,50.80
2018-10-19T18:46:16.420Z,54.30
2018-10-19T18:48:44.982Z,53.50
2018-10-19T18:51:13.805Z,53.37
2018-10-19T18:53:42.814Z,54.20
2018-10-19T18:56:12.114Z,55.33
2018-10-19T18:58:41.178Z,53.27
2018-10-19T19:01:10.401Z,56.50
2018-10-19T19:03:38.954Z,52.53
2018-10-19T19:06:11.483Z,52.13
2018-10-19T19:08:40.590Z,53.60
2018-10-19T19:11:09.129Z,56.63
2018-10-19T19:13:46.284Z,54.50
2018-10-19T19:16:20.243Z,53.13
2018-10-19T19:18:49.107Z,54.33
2018-10-19T19:21:18.647Z,54.40
2018-10-19T19:23:52.640Z,53.27
2018-10-19T19:26:22.915Z,52.93
2018-10-19T19:28:51.604Z,51.83
2018-10-19T19:31:20.222Z,53.90
2018-10-19T19:33:54.271Z,54.80
2018-10-19T19:36:22.825Z,55.93
2018-10-19T19:38:51.358Z,48.77
2018-10-19T19:41:28.912Z,54.33
2018-10-19T19:43:57.569Z,52.53
2018-10-19T19:46:26.082Z,53.87
2018-10-19T19:48:59.841Z,55.27
2018-10-19T19:51:29.282Z,52.63
2018-10-19T19:53:58.744Z,49.87
2018-10-19T19:56:27.496Z,54.70
2018-10-19T19:58:56.087Z,54.13
2018-10-19T20:01:26.354Z,58.73
2018-10-19T20:03:54.942Z,57.73
2018-10-19T20:06:24.050Z,58.53
2018-10-19T20:08:52.885Z,56.47
2018-10-19T20:11:22.241Z,57.97
2018-10-19T20:13:50.914Z,57.73
2018-10-19T20:16:19.585Z,54.67
2018-10-19T20:18:48.624Z,56.00
2018-10-19T20:21:17.363Z,57.13
2018-10-19T20:23:46.119Z,55.37
2018-10-19T20:26:14.798Z,53.57
2018-10-19T20:28:44.012Z,51.93
2018-10-19T20:31:13.995Z,52.80
2018-10-19T20:33:42.575Z,54.13
2018-10-19T20:36:11.642Z,55.30
2018-10-19T20:38:40.598Z,56.03
2018-10-19T20:41:09.953Z,56.67
2018-10-19T20:43:39.032Z,56.67
2018-10-19T20:46:08.335Z,56.53
2018-10-19T20:48:37.608Z,58.57
2018-10-19T20:51:06.996Z,55.80
2018-10-19T20:53:36.400Z,53.90
2018-10-19T20:56:05.423Z,54.00
2018-10-19T20:58:34.439Z,50.43
2018-10-19T21:01:03.581Z,54.67
2018-10-19T21:03:32.880Z,56.07
2018-10-19T21:06:02.228Z,55.93
2018-10-19T21:08:30.858Z,50.73
2018-10-19T21:10:59.459Z,48.63
2018-10-19T21:13:28.102Z,53.47
2018-10-19T21:15:56.549Z,46.60
2018-10-19T21:18:25.077Z,54.50
2018-10-19T21:20:53.595Z,58.20
2018-10-19T21:23:22.201Z,57.13
2018-10-19T21:25:50.937Z,62.80
2018-10-19T21:28:19.583Z,60.80
2018-10-19T21:30:48.190Z,60.33
2018-10-19T21:33:16.889Z,59.57
2018-10-19T21:35:45.469Z,60.30
2018-10-19T21:38:14.023Z,57.93
2018-10-19T21:40:42.540Z,58.93
2018-10-19T21:43:11.048Z,61.43
2018-10-19T21:45:39.655Z,65.43
2018-10-19T21:48:08.200Z,62.80
2018-10-19T21:50:36.923Z,57.80
2018-10-19T21:53:05.771Z,58.90
2018-10-19T21:55:34.205Z,57.37
2018-10-19T21:58:02.697Z,58.20
2018-10-19T22:00:31.244Z,60.93
2018-10-19T22:02:59.797Z,55.20
2018-10-19T22:05:28.307Z,51.83
2018-10-19T22:07:57.256Z,59.90
2018-10-19T22:10:25.777Z,50.20
2018-10-19T22:12:54.372Z,57.13
2018-10-19T22:15:22.849Z,55.50
2018-10-19T22:17:51.431Z,51.30
2018-10-19T22:20:19.931Z,55.50
2018-10-19T22:22:48.538Z,54.53
2018-10-19T22:25:17.278Z,56.40
2018-10-19T22:27:45.699Z,53.10
2018-10-19T22:30:14.317Z,51.87
2018-10-19T22:32:42.827Z,50.70
2018-10-19T22:35:11.468Z,54.83
2018-10-19T22:37:40.003Z,60.77
2018-10-19T22:40:08.532Z,61.07
2018-10-19T22:42:37.047Z,63.50
2018-10-19T22:45:05.743Z,64.93
2018-10-19T22:47:34.254Z,65.00
2018-10-19T22:50:02.852Z,56.30
2018-10-19T22:52:31.408Z,59.20
2018-10-19T22:54:59.993Z,61.07
2018-10-19T22:57:28.498Z,65.13
2018-10-19T22:59:57.010Z,59.70
2018-10-19T23:02:25.579Z,52.53
2018-10-19T23:04:54.103Z,55.43
2018-10-19T23:07:22.550Z,61.07
2018-10-19T23:09:51.052Z,56.43
2018-10-19T23:12:19.584Z,61.07
2018-10-19T23:14:48.151Z,54.60
2018-10-19T23:17:16.752Z,56.87
2018-10-19T23:19:45.255Z,54.60
2018-10-19T23:22:13.783Z,61.40
2018-10-19T23:24:42.255Z,61.80
2018-10-19T23:27:10.848Z,61.97
2018-10-19T23:29:39.355Z,60.10
2018-10-19T23:32:07.848Z,56.73
2018-10-19T23:34:36.428Z,62.60
2018-10-19T23:37:05.029Z,69.50
2018-10-19T23:39:33.573Z,61.80
2018-10-19T23:42:02.173Z,60.57
2018-10-19T23:44:30.653Z,59.90
2018-10-19T23:46:59.177Z,62.00
2018-10-19T23:49:27.711Z,59.30
2018-10-19T23:51:56.236Z,65.67
2018-10-19T23:54:24.713Z,56.80
2018-10-19T23:56:53.218Z,64.33
2018-10-19T23:59:21.713Z,57.33
